Time;durP1;ratioP1;P1;durP2;ratioP2;P2;SDS_P1;SDS_P2;PMS_P1;PMS_P2;Temp;Humidity;BMP_temperature;BMP_pressure;BME280_temperature;BME280_humidity;BME280_pressure;Samples;Min_cycle;Max_cycle;Signal;HPM_P1;HPM_P2
2023/07/09 00:01:17;;;;;;;;;;;;;;;24.09;49.27246;101735.1;;;;-71
2023/07/09 00:02:15;;;;;;;0.7;0.3;;;;;;;;;;;;;-70
2023/07/09 00:06:15;;;;;;;;;;;;;;;24.04;49.53223;101735.1;;;;-69
2023/07/09 00:11:15;;;;;;;;;;;;;;;23.94;49.29004;101734.4;;;;-69
2023/07/09 00:16:18;;;;;;;;;;;;;;;23.87;49.54883;101741.8;;;;-70
2023/07/09 00:21:14;;;;;;;;;;;;;;;23.84;49.40625;101754;;;;-71
2023/07/09 00:26:17;;;;;;;;;;;;;;;23.8;49.4248;101764.8;;;;-70
2023/07/09 00:31:16;;;;;;;;;;;;;;;23.72;49.61133;101757.2;;;;-69
2023/07/09 00:32:21;;;;;;;0.8;0.2;;;;;;;;;;;;;-69
2023/07/09 00:36:17;;;;;;;;;;;;;;;23.7;50.11523;101758.2;;;;-70
2023/07/09 00:41:18;;;;;;;;;;;;;;;23.64;50.36133;101766.1;;;;-71
2023/07/09 00:46:31;;;;;;;;;;;;;;;23.59;50.56348;101766.7;;;;-70
2023/07/09 00:51:17;;;;;;;;;;;;;;;23.55;50.52441;101775.3;;;;-71
2023/07/09 00:56:15;;;;;;;;;;;;;;;23.54;50.39746;101777.8;;;;-69
2023/07/09 01:01:16;;;;;;;;;;;;;;;23.47;50.18164;101781.9;;;;-72
2023/07/09 01:02:23;;;;;;;0.2;0.1;;;;;;;;;;;;;-71
2023/07/09 01:06:15;;;;;;;;;;;;;;;23.45;50.36523;101776;;;;-70
2023/07/09 01:11:22;;;;;;;;;;;;;;;23.45;50.05371;101769.9;;;;-70
2023/07/09 01:16:15;;;;;;;;;;;;;;;23.48;50.20703;101770;;;;-70
2023/07/09 01:21:16;;;;;;;;;;;;;;;23.48;50.13672;101766.9;;;;-71
2023/07/09 01:26:16;;;;;;;;;;;;;;;23.47;50.29688;101764.6;;;;-70
2023/07/09 01:31:15;;;;;;;;;;;;;;;23.41;50.21094;101765.1;;;;-71
2023/07/09 01:32:26;;;;;;;1.4;0.2;;;;;;;;;;;;;-70
2023/07/09 01:36:15;;;;;;;;;;;;;;;23.36;50.34277;101766.8;;;;-69
2023/07/09 01:41:15;;;;;;;;;;;;;;;23.32;50.56738;101769.4;;;;-70
2023/07/09 01:46:16;;;;;;;;;;;;;;;23.31;50.7168;101776.7;;;;-69
2023/07/09 01:51:16;;;;;;;;;;;;;;;23.26;51.51465;101775.8;;;;-70
2023/07/09 01:56:14;;;;;;;;;;;;;;;23.22;51.16504;101783.6;;;;-70
2023/07/09 02:01:15;;;;;;;;;;;;;;;23.16;51.49121;101790.3;;;;-69
2023/07/09 02:02:32;;;;;;;0.2;0;;;;;;;;;;;;;-69
2023/07/09 02:06:14;;;;;;;;;;;;;;;23.14;51.39746;101791;;;;-69
2023/07/09 02:11:15;;;;;;;;;;;;;;;23.09;51.27637;101781.6;;;;-69
2023/07/09 02:16:14;;;;;;;;;;;;;;;23.02;51.91113;101781.4;;;;-69
2023/07/09 02:21:14;;;;;;;;;;;;;;;23.01;52.10645;101788.6;;;;-70
2023/07/09 02:26:14;;;;;;;;;;;;;;;22.97;52.26172;101784.4;;;;-69
2023/07/09 02:31:15;;;;;;;;;;;;;;;22.92;52.19922;101787;;;;-69
2023/07/09 02:32:33;;;;;;;0.2;0;;;;;;;;;;;;;-70
2023/07/09 02:36:14;;;;;;;;;;;;;;;22.91;52.37012;101787;;;;-70
2023/07/09 02:41:15;;;;;;;;;;;;;;;22.87;52.50195;101785.2;;;;-69
2023/07/09 02:46:14;;;;;;;;;;;;;;;22.84;52.69434;101787;;;;-71
2023/07/09 02:51:14;;;;;;;;;;;;;;;22.78;52.36621;101783.1;;;;-70
2023/07/09 02:56:14;;;;;;;;;;;;;;;22.75;52.52246;101782.6;;;;-69
2023/07/09 03:01:14;;;;;;;;;;;;;;;22.71;52.55273;101780.2;;;;-71
2023/07/09 03:02:37;;;;;;;0.2;0.1;;;;;;;;;;;;;-69
2023/07/09 03:06:14;;;;;;;;;;;;;;;22.67;52.50195;101788.4;;;;-71
2023/07/09 03:11:18;;;;;;;;;;;;;;;22.66;52.27246;101783.8;;;;-73
2023/07/09 03:16:15;;;;;;;;;;;;;;;22.6;52.03516;101784.2;;;;-70
2023/07/09 03:21:15;;;;;;;;;;;;;;;22.57;52.65039;101792.7;;;;-71
2023/07/09 03:26:14;;;;;;;;;;;;;;;22.56;52.14453;101796.9;;;;-69
2023/07/09 03:31:15;;;;;;;;;;;;;;;22.5;52.62012;101789.9;;;;-68
2023/07/09 03:32:41;;;;;;;0.8;0.4;;;;;;;;;;;;;-70
2023/07/09 03:36:14;;;;;;;;;;;;;;;22.45;52.51074;101787.6;;;;-70
2023/07/09 03:41:15;;;;;;;;;;;;;;;22.39;52.72168;101787.3;;;;-69
2023/07/09 03:46:15;;;;;;;;;;;;;;;22.37;52.53516;101792.3;;;;-69
2023/07/09 03:51:14;;;;;;;;;;;;;;;22.32;52.47168;101798.7;;;;-70
2023/07/09 03:56:14;;;;;;;;;;;;;;;22.28;52.44531;101808.3;;;;-70
2023/07/09 04:01:16;;;;;;;;;;;;;;;22.24;52.29102;101814.5;;;;-70
2023/07/09 04:02:45;;;;;;;0.4;0.2;;;;;;;;;;;;;-72
2023/07/09 04:06:14;;;;;;;;;;;;;;;22.23;52.08398;101823.8;;;;-70
2023/07/09 04:11:14;;;;;;;;;;;;;;;22.2;52.04492;101827;;;;-69
2023/07/09 04:16:15;;;;;;;;;;;;;;;22.17;51.92773;101825.3;;;;-70
2023/07/09 04:21:17;;;;;;;;;;;;;;;22.17;52.03027;101832.5;;;;-69
2023/07/09 04:26:16;;;;;;;;;;;;;;;22.19;51.87305;101831.7;;;;-71
2023/07/09 04:31:14;;;;;;;;;;;;;;;22.2;51.81641;101830.7;;;;-69
2023/07/09 04:32:48;;;;;;;0.2;0.1;;;;;;;;;;;;;-70
2023/07/09 04:36:16;;;;;;;;;;;;;;;22.27;51.73242;101839.3;;;;-71
2023/07/09 04:41:14;;;;;;;;;;;;;;;22.29;51.50684;101839.7;;;;-72
2023/07/09 04:46:15;;;;;;;;;;;;;;;22.32;51.88867;101840.4;;;;-72
2023/07/09 04:51:14;;;;;;;;;;;;;;;22.36;51.33203;101837.9;;;;-70
2023/07/09 04:56:14;;;;;;;;;;;;;;;22.48;51.28711;101835.1;;;;-71
2023/07/09 05:01:15;;;;;;;;;;;;;;;22.51;51.17676;101831.5;;;;-71
2023/07/09 05:02:51;;;;;;;0.2;0.1;;;;;;;;;;;;;-70
2023/07/09 05:06:14;;;;;;;;;;;;;;;22.59;50.9668;101840.1;;;;-70
2023/07/09 05:11:15;;;;;;;;;;;;;;;22.63;50.98438;101838.4;;;;-70
2023/07/09 05:16:14;;;;;;;;;;;;;;;22.79;50.63379;101841.1;;;;-69
2023/07/09 05:21:15;;;;;;;;;;;;;;;22.87;50.26367;101837;;;;-69
2023/07/09 05:26:14;;;;;;;;;;;;;;;23.02;50.22266;101834.8;;;;-70
2023/07/09 05:31:14;;;;;;;;;;;;;;;23.19;50.25391;101827.5;;;;-70
2023/07/09 05:32:57;;;;;;;0.2;0.1;;;;;;;;;;;;;-70
2023/07/09 05:36:15;;;;;;;;;;;;;;;23.48;49.75781;101829.9;;;;-71
2023/07/09 05:41:16;;;;;;;;;;;;;;;23.78;49.00977;101832.8;;;;-71
2023/07/09 05:46:18;;;;;;;;;;;;;;;24.12;48.84961;101830.1;;;;-70
2023/07/09 05:51:14;;;;;;;;;;;;;;;24.46;48.19531;101835.3;;;;-70
2023/07/09 05:56:14;;;;;;;;;;;;;;;24.82;48.50977;101841.2;;;;-70
2023/07/09 06:01:15;;;;;;;;;;;;;;;25.09;48.49219;101854.5;;;;-71
2023/07/09 06:02:58;;;;;;;0.3;0.1;;;;;;;;;;;;;-71
2023/07/09 06:06:15;;;;;;;;;;;;;;;25.3;48.86328;101855.5;;;;-71
2023/07/09 06:11:15;;;;;;;;;;;;;;;25.49;49.65723;101855.8;;;;-70
2023/07/09 06:16:17;;;;;;;;;;;;;;;25.75;49.7207;101860;;;;-70
2023/07/09 06:21:14;;;;;;;;;;;;;;;25.93;49.33496;101862.1;;;;-70
2023/07/09 06:26:14;;;;;;;;;;;;;;;26.14;49.20801;101860.8;;;;-70
2023/07/09 06:31:14;;;;;;;;;;;;;;;26.38;49.0498;101868.5;;;;-70
2023/07/09 06:33:02;;;;;;;0.3;0.1;;;;;;;;;;;;;-70
2023/07/09 06:36:14;;;;;;;;;;;;;;;26.51;48.95898;101877.2;;;;-70
2023/07/09 06:41:15;;;;;;;;;;;;;;;26.67;48.97656;101881.7;;;;-70
2023/07/09 06:46:15;;;;;;;;;;;;;;;26.83;49.11035;101888.1;;;;-71
2023/07/09 06:51:14;;;;;;;;;;;;;;;27.07;48.30176;101892.4;;;;-70
2023/07/09 06:56:15;;;;;;;;;;;;;;;27.28;47.96289;101894.5;;;;-71
2023/07/09 07:01:15;;;;;;;;;;;;;;;27.47;47.73926;101894.6;;;;-71
2023/07/09 07:03:07;;;;;;;0.3;0.1;;;;;;;;;;;;;-70
2023/07/09 07:06:15;;;;;;;;;;;;;;;27.59;47.49805;101913.5;;;;-70
2023/07/09 07:11:14;;;;;;;;;;;;;;;27.74;47.25781;101926.5;;;;-70
2023/07/09 07:16:15;;;;;;;;;;;;;;;27.93;46.82422;101933.4;;;;-69
2023/07/09 07:21:17;;;;;;;;;;;;;;;28.16;46.20801;101932.3;;;;-73
2023/07/09 07:26:14;;;;;;;;;;;;;;;28.33;45.69043;101932.6;;;;-70
2023/07/09 07:31:15;;;;;;;;;;;;;;;28.44;45.48047;101929.3;;;;-70
2023/07/09 07:33:11;;;;;;;0.2;0.1;;;;;;;;;;;;;-69
2023/07/09 07:36:15;;;;;;;;;;;;;;;28.68;44.94434;101934.4;;;;-70
2023/07/09 07:41:14;;;;;;;;;;;;;;;29.04;44.19922;101919.7;;;;-70
2023/07/09 07:46:14;;;;;;;;;;;;;;;29.38;43.42773;101911.5;;;;-70
2023/07/09 07:51:14;;;;;;;;;;;;;;;29.8;42.93066;101909.8;;;;-71
2023/07/09 07:56:14;;;;;;;;;;;;;;;30.2;42.51172;101905;;;;-70
2023/07/09 08:01:14;;;;;;;;;;;;;;;30.47;42.04492;101900.2;;;;-70
2023/07/09 08:03:16;;;;;;;0.4;0.1;;;;;;;;;;;;;-71
2023/07/09 08:06:15;;;;;;;;;;;;;;;30.69;42.01953;101895.8;;;;-71
2023/07/09 08:11:15;;;;;;;;;;;;;;;30.93;41.68945;101904.9;;;;-70
2023/07/09 08:16:15;;;;;;;;;;;;;;;31.11;41.60059;101912.9;;;;-70
2023/07/09 08:21:14;;;;;;;;;;;;;;;31.3;41.40723;101912.3;;;;-71
2023/07/09 08:26:15;;;;;;;;;;;;;;;31.45;41.39648;101903.7;;;;-70
2023/07/09 08:31:15;;;;;;;;;;;;;;;31.72;41.31543;101899.1;;;;-70
2023/07/09 08:33:21;;;;;;;0.2;0;;;;;;;;;;;;;-71
2023/07/09 08:36:14;;;;;;;;;;;;;;;31.82;41.29004;101891.9;;;;-72
2023/07/09 08:41:22;;;;;;;;;;;;;;;32.01;41.2832;101896.1;;;;-72
2023/07/09 08:46:21;;;;;;;;;;;;;;;32.31;40.74512;101890.4;;;;-70
2023/07/09 08:51:18;;;;;;;;;;;;;;;32.55;40.80273;101882.3;;;;-71
2023/07/09 08:56:17;;;;;;;;;;;;;;;32.87;40.31348;101880.3;;;;-70
2023/07/09 09:01:20;;;;;;;;;;;;;;;33.1;40.09863;101880.5;;;;-69
2023/07/09 09:03:31;;;;;;;0.2;0;;;;;;;;;;;;;-68
2023/07/09 09:06:19;;;;;;;;;;;;;;;33.25;40.12305;101878.7;;;;-70
2023/07/09 09:11:18;;;;;;;;;;;;;;;33.44;39.78516;101879.4;;;;-70
2023/07/09 09:16:18;;;;;;;;;;;;;;;33.65;39.5332;101879.2;;;;-70
2023/07/09 09:21:18;;;;;;;;;;;;;;;33.8;39.29785;101878.4;;;;-74
2023/07/09 09:26:19;;;;;;;;;;;;;;;33.93;39.28516;101880;;;;-70
2023/07/09 09:31:16;;;;;;;;;;;;;;;34.2;39.02441;101876.1;;;;-70
2023/07/09 09:33:40;;;;;;;0.1;0;;;;;;;;;;;;;-70
2023/07/09 09:36:19;;;;;;;;;;;;;;;34.42;38.86621;101868.2;;;;-69
2023/07/09 09:41:18;;;;;;;;;;;;;;;34.57;38.63086;101874.2;;;;-71
2023/07/09 09:46:19;;;;;;;;;;;;;;;34.8;38.36621;101891.8;;;;-72
2023/07/09 09:51:15;;;;;;;;;;;;;;;34.98;38.12012;101904.2;;;;-69
2023/07/09 09:56:18;;;;;;;;;;;;;;;35.17;37.88867;101905.9;;;;-70
2023/07/09 10:01:22;;;;;;;;;;;;;;;35.38;37.52539;101905.3;;;;-69
2023/07/09 10:03:42;;;;;;;0.2;0;;;;;;;;;;;;;-69
2023/07/09 10:06:18;;;;;;;;;;;;;;;35.61;37.34375;101913.8;;;;-69
2023/07/09 10:11:20;;;;;;;;;;;;;;;35.83;36.87402;101927;;;;-69
2023/07/09 10:16:20;;;;;;;;;;;;;;;35.96;36.60059;101933.5;;;;-69
2023/07/09 10:21:28;;;;;;;;;;;;;;;35.8;36.33789;101930;;;;-70
2023/07/09 10:26:17;;;;;;;;;;;;;;;35.58;36.87793;101921.2;;;;-69
2023/07/09 10:31:20;;;;;;;;;;;;;;;35.49;37.03711;101898.1;;;;-72
2023/07/09 10:33:51;;;;;;;0.2;0;;;;;;;;;;;;;-69
2023/07/09 10:36:19;;;;;;;;;;;;;;;35.58;37.64941;101886.2;;;;-69
2023/07/09 10:41:15;;;;;;;;;;;;;;;35.89;37.06934;101873.4;;;;-70
2023/07/09 10:46:17;;;;;;;;;;;;;;;36.06;36.90527;101872;;;;-70
2023/07/09 10:51:20;;;;;;;;;;;;;;;36.3;36.76953;101871.1;;;;-69
2023/07/09 10:56:16;;;;;;;;;;;;;;;36.5;36.32324;101873.4;;;;-69
2023/07/09 11:01:16;;;;;;;;;;;;;;;36.54;36.00488;101872.3;;;;-69
2023/07/09 11:03:54;;;;;;;0.2;0;;;;;;;;;;;;;-70
2023/07/09 11:06:19;;;;;;;;;;;;;;;36.7;36.01758;101861.4;;;;-70
2023/07/09 11:11:17;;;;;;;;;;;;;;;36.86;36.39941;101865.6;;;;-70
2023/07/09 11:16:17;;;;;;;;;;;;;;;36.77;36.37891;101886.9;;;;-69
2023/07/09 11:21:18;;;;;;;;;;;;;;;36.36;36.8457;101892.1;;;;-69
2023/07/09 11:26:26;;;;;;;;;;;;;;;36.02;37.21094;101887.8;;;;-70
2023/07/09 11:31:21;;;;;;;;;;;;;;;35.74;37.4248;101864.3;;;;-70
2023/07/09 11:34:14;;;;;;;0.1;0;;;;;;;;;;;;;-70
2023/07/09 11:36:15;;;;;;;;;;;;;;;35.57;37.57715;101880;;;;-70
2023/07/09 11:41:25;;;;;;;;;;;;;;;35.59;37.55566;101881.2;;;;-69
2023/07/09 11:46:18;;;;;;;;;;;;;;;35.79;37.31055;101899.9;;;;-72
2023/07/09 11:51:18;;;;;;;;;;;;;;;35.87;36.75879;101912.7;;;;-68
2023/07/09 11:56:16;;;;;;;;;;;;;;;35.87;36.43945;101915.4;;;;-69
2023/07/09 12:01:18;;;;;;;;;;;;;;;35.96;36.28027;101926.9;;;;-70
2023/07/09 12:04:08;;;;;;;0.1;0;;;;;;;;;;;;;-70
2023/07/09 12:06:20;;;;;;;;;;;;;;;35.91;35.93262;101915.5;;;;-71
2023/07/09 12:11:25;;;;;;;;;;;;;;;35.98;35.99609;101918.8;;;;-70
2023/07/09 12:16:25;;;;;;;;;;;;;;;36.06;35.81348;101928.3;;;;-71
2023/07/09 12:34:15;;;;;;;0.2;0;;;;;;;;;;;;;-69
2023/07/09 12:35:47;;;;;;;;;;;;;;;35.99;35.4873;101965.8;;;;-68
2023/07/09 12:40:47;;;;;;;;;;;;;;;35.78;35.61328;101995.2;;;;-68
2023/07/09 12:45:47;;;;;;;;;;;;;;;35.29;36.37012;101996.3;;;;-71
2023/07/09 12:50:52;;;;;;;;;;;;;;;34.69;37.39844;101996.6;;;;-69
2023/07/09 12:55:50;;;;;;;;;;;;;;;34.28;38.13281;102015.9;;;;-69
2023/07/09 13:00:51;;;;;;;;;;;;;;;33.86;38.51172;102001.4;;;;-68
2023/07/09 13:04:23;;;;;;;0.1;0;;;;;;;;;;;;;-71
2023/07/09 13:05:54;;;;;;;;;;;;;;;33.36;38.95313;102016;;;;-70
2023/07/09 13:10:50;;;;;;;;;;;;;;;33.1;39.60254;102027.1;;;;-69
2023/07/09 13:15:48;;;;;;;;;;;;;;;32.75;39.49023;101990.3;;;;-71
2023/07/09 13:20:47;;;;;;;;;;;;;;;32.35;39.84277;101970.4;;;;-69
2023/07/09 13:25:47;;;;;;;;;;;;;;;31.91;40.68652;101949.1;;;;-69
2023/07/09 13:30:47;;;;;;;;;;;;;;;31.57;41.09082;101956.8;;;;-69
2023/07/09 13:34:31;;;;;;;0.1;0;;;;;;;;;;;;;-70
2023/07/09 13:35:47;;;;;;;;;;;;;;;31.26;41.69629;101980.4;;;;-68
2023/07/09 13:40:48;;;;;;;;;;;;;;;31.07;42.01855;101981.9;;;;-70
2023/07/09 13:45:48;;;;;;;;;;;;;;;31.03;42.03906;101979.5;;;;-69
2023/07/09 13:50:47;;;;;;;;;;;;;;;30.99;42.18652;101985.5;;;;-68
2023/07/09 13:55:47;;;;;;;;;;;;;;;30.9;42.12012;101985.3;;;;-69
2023/07/09 14:00:52;;;;;;;;;;;;;;;30.86;42.13965;101987.6;;;;-72
2023/07/09 14:04:32;;;;;;;0.2;0;;;;;;;;;;;;;-70
2023/07/09 14:05:47;;;;;;;;;;;;;;;30.78;42.10938;101982.4;;;;-68
2023/07/09 14:10:48;;;;;;;;;;;;;;;30.74;42.10547;101972.8;;;;-67
2023/07/09 14:15:47;;;;;;;;;;;;;;;30.61;42.10547;101935.5;;;;-70
2023/07/09 14:20:47;;;;;;;;;;;;;;;30.53;42.41406;101916.8;;;;-68
2023/07/09 14:25:47;;;;;;;;;;;;;;;30.51;42.25977;101888.4;;;;-69
2023/07/09 14:30:47;;;;;;;;;;;;;;;30.4;42.27344;101872.7;;;;-70
2023/07/09 14:34:40;;;;;;;0.2;0.1;;;;;;;;;;;;;-69
2023/07/09 14:35:49;;;;;;;;;;;;;;;30.33;42.38379;101862.7;;;;-69
2023/07/09 14:40:47;;;;;;;;;;;;;;;30.14;42.62305;101869.3;;;;-70
2023/07/09 14:45:47;;;;;;;;;;;;;;;29.94;42.91992;101881;;;;-68
2023/07/09 14:50:51;;;;;;;;;;;;;;;29.72;43.29688;101899;;;;-70
2023/07/09 14:55:49;;;;;;;;;;;;;;;29.5;43.68359;101904.3;;;;-69
2023/07/09 15:00:47;;;;;;;;;;;;;;;29.14;44.20898;101903.8;;;;-69
2023/07/09 15:04:44;;;;;;;0.2;0;;;;;;;;;;;;;-69
2023/07/09 15:05:47;;;;;;;;;;;;;;;28.8;45.00293;101945.6;;;;-70
2023/07/09 15:10:47;;;;;;;;;;;;;;;28.6;45.13574;101958.6;;;;-69
2023/07/09 15:15:56;;;;;;;;;;;;;;;28.4;45.79004;101967.7;;;;-71
2023/07/09 15:20:50;;;;;;;;;;;;;;;28.17;45.75488;102018.5;;;;-68
2023/07/09 15:25:46;;;;;;;;;;;;;;;27.88;46.0625;102117.5;;;;-69
2023/07/09 15:30:46;;;;;;;;;;;;;;;27.43;47.27148;102037.3;;;;-70
2023/07/09 15:34:49;;;;;;;0.5;0.1;;;;;;;;;;;;;-68
2023/07/09 15:35:48;;;;;;;;;;;;;;;27.16;46.65234;101973.1;;;;-69
2023/07/09 15:40:47;;;;;;;;;;;;;;;26.92;47.14844;101969.1;;;;-70
2023/07/09 15:45:48;;;;;;;;;;;;;;;26.73;47.24512;101947;;;;-71
2023/07/09 15:50:47;;;;;;;;;;;;;;;26.57;47.65723;101923.4;;;;-72
2023/07/09 15:55:47;;;;;;;;;;;;;;;26.48;47.85547;101937.7;;;;-70
2023/07/09 16:00:47;;;;;;;;;;;;;;;26.43;48.20898;101883.2;;;;-70
2023/07/09 16:04:54;;;;;;;0.2;0;;;;;;;;;;;;;-71
2023/07/09 16:05:49;;;;;;;;;;;;;;;26.4;48.72754;101928.2;;;;-70
2023/07/09 16:10:47;;;;;;;;;;;;;;;26.41;49.22754;101981;;;;-71
2023/07/09 16:15:49;;;;;;;;;;;;;;;26.37;49.28125;101983.9;;;;-69
2023/07/09 16:20:47;;;;;;;;;;;;;;;26.29;49.65234;101975.9;;;;-71
2023/07/09 16:25:49;;;;;;;;;;;;;;;26.17;50.09082;101987.8;;;;-69
2023/07/09 16:30:48;;;;;;;;;;;;;;;26;50.45313;101993.5;;;;-70
2023/07/09 16:34:58;;;;;;;0.2;0;;;;;;;;;;;;;-69
2023/07/09 16:35:47;;;;;;;;;;;;;;;25.84;50.57422;102008.7;;;;-71
2023/07/09 16:40:47;;;;;;;;;;;;;;;25.7;51.19531;102037.8;;;;-70
2023/07/09 16:45:47;;;;;;;;;;;;;;;25.57;51.31934;102051.7;;;;-72
2023/07/09 16:50:47;;;;;;;;;;;;;;;25.45;51.55762;102057.2;;;;-69
2023/07/09 16:55:48;;;;;;;;;;;;;;;25.36;51.85938;102051.4;;;;-71
2023/07/09 17:00:47;;;;;;;;;;;;;;;25.31;51.76172;102040.3;;;;-69
2023/07/09 17:05:06;;;;;;;0.3;0.1;;;;;;;;;;;;;-69
2023/07/09 17:05:53;;;;;;;;;;;;;;;25.3;51.875;102029.7;;;;-71
2023/07/09 17:10:49;;;;;;;;;;;;;;;25.32;52.14258;102022.7;;;;-70
2023/07/09 17:15:48;;;;;;;;;;;;;;;25.33;51.92578;102019.5;;;;-72
2023/07/09 17:20:46;;;;;;;;;;;;;;;25.33;52.30664;102008;;;;-72
2023/07/09 17:25:47;;;;;;;;;;;;;;;25.32;52.32813;102017.8;;;;-71
2023/07/09 17:30:51;;;;;;;;;;;;;;;25.28;52.72754;102020.5;;;;-72
2023/07/09 17:35:08;;;;;;;0.2;0;;;;;;;;;;;;;-72
2023/07/09 17:39:57;;;;;;;;;;;;;;;25.17;52.64551;102024;;;;-69
2023/07/09 17:44:54;;;;;;;;;;;;;;;25.11;53.0293;102034.1;;;;-69
2023/07/09 17:49:54;;;;;;;;;;;;;;;25.06;52.80566;102052;;;;-69
2023/07/09 17:54:56;;;;;;;;;;;;;;;25.03;52.74414;102056.8;;;;-69
2023/07/09 17:59:55;;;;;;;;;;;;;;;24.98;52.99121;102044.5;;;;-68
2023/07/09 18:04:57;;;;;;;;;;;;;;;24.93;53.22852;102041.9;;;;-68
2023/07/09 18:05:20;;;;;;;0.2;0;;;;;;;;;;;;;-69
2023/07/09 18:09:55;;;;;;;;;;;;;;;24.88;53.52148;102055;;;;-68
2023/07/09 18:14:57;;;;;;;;;;;;;;;24.83;53.2168;102053.8;;;;-69
2023/07/09 18:19:55;;;;;;;;;;;;;;;24.76;53.76074;102042.4;;;;-68
2023/07/09 18:24:54;;;;;;;;;;;;;;;24.7;53.50098;102030.8;;;;-68
2023/07/09 18:29:55;;;;;;;;;;;;;;;24.63;53.5957;102028.2;;;;-69
2023/07/09 18:34:58;;;;;;;;;;;;;;;24.54;54.1377;102032.5;;;;-69
2023/07/09 18:35:26;;;;;;;0.3;0.1;;;;;;;;;;;;;-68
2023/07/09 18:39:57;;;;;;;;;;;;;;;24.45;54.875;102041.1;;;;-68
2023/07/09 18:45:05;;;;;;;;;;;;;;;24.35;54.80469;102028.9;;;;-68
2023/07/09 18:49:54;;;;;;;;;;;;;;;24.23;54.99707;102034.6;;;;-68
2023/07/09 18:55:05;;;;;;;;;;;;;;;24.11;54.9248;102026.6;;;;-70
2023/07/09 18:59:54;;;;;;;;;;;;;;;24;55.47461;102040.2;;;;-69
2023/07/09 19:04:57;;;;;;;;;;;;;;;23.88;55.27734;102027.6;;;;-68
2023/07/09 19:05:21;;;;;;;1;0.5;;;;;;;;;;;;;-69
2023/07/09 19:09:54;;;;;;;;;;;;;;;23.77;55.36621;102013.3;;;;-69
2023/07/09 19:14:54;;;;;;;;;;;;;;;23.67;55.31934;102012.6;;;;-68
2023/07/09 19:19:54;;;;;;;;;;;;;;;23.58;55.6875;102015.2;;;;-69
2023/07/09 19:24:54;;;;;;;;;;;;;;;23.5;55.83691;102026;;;;-68
2023/07/09 19:29:54;;;;;;;;;;;;;;;23.41;56.27441;102024;;;;-69
2023/07/09 19:34:54;;;;;;;;;;;;;;;23.3;56.20215;102033.6;;;;-69
2023/07/09 19:35:25;;;;;;;0.3;0.1;;;;;;;;;;;;;-69
2023/07/09 19:39:54;;;;;;;;;;;;;;;23.2;56.53516;102029.3;;;;-69
2023/07/09 19:44:55;;;;;;;;;;;;;;;23.09;56.95605;102032.6;;;;-69
2023/07/09 19:49:56;;;;;;;;;;;;;;;22.95;56.97266;102055.4;;;;-69
2023/07/09 19:54:54;;;;;;;;;;;;;;;22.85;56.84473;102057.9;;;;-69
2023/07/09 19:59:54;;;;;;;;;;;;;;;22.77;57.16797;102068.4;;;;-68
2023/07/09 20:04:54;;;;;;;;;;;;;;;22.68;57.37305;102072.8;;;;-68
2023/07/09 20:05:28;;;;;;;0.2;0;;;;;;;;;;;;;-69
2023/07/09 20:09:54;;;;;;;;;;;;;;;22.62;57.08008;102080.4;;;;-69
2023/07/09 20:14:54;;;;;;;;;;;;;;;22.54;57.19531;102085.7;;;;-67
2023/07/09 20:19:54;;;;;;;;;;;;;;;22.45;57.28809;102086.1;;;;-68
2023/07/09 20:24:54;;;;;;;;;;;;;;;22.36;57.66602;102075.4;;;;-66
2023/07/09 20:29:54;;;;;;;;;;;;;;;22.29;57.64453;102090.7;;;;-67
2023/07/09 20:34:55;;;;;;;;;;;;;;;22.22;57.71582;102095.9;;;;-68
2023/07/09 20:35:31;;;;;;;0.2;0;;;;;;;;;;;;;-67
2023/07/09 20:39:54;;;;;;;;;;;;;;;22.14;58.02539;102107.6;;;;-67
2023/07/09 20:44:55;;;;;;;;;;;;;;;22.07;58.37012;102091;;;;-67
2023/07/09 20:49:56;;;;;;;;;;;;;;;22;58.17871;102104.5;;;;-68
2023/07/09 20:54:54;;;;;;;;;;;;;;;21.92;58.5;102103.9;;;;-69
2023/07/09 20:59:54;;;;;;;;;;;;;;;21.88;58.14063;102100.8;;;;-67
2023/07/09 21:04:55;;;;;;;;;;;;;;;21.82;58.34961;102094.5;;;;-67
2023/07/09 21:05:35;;;;;;;0.3;0.1;;;;;;;;;;;;;-69
2023/07/09 21:09:54;;;;;;;;;;;;;;;21.77;58.39941;102090;;;;-68
2023/07/09 21:14:54;;;;;;;;;;;;;;;21.72;58.3252;102099.6;;;;-71
2023/07/09 21:19:54;;;;;;;;;;;;;;;21.67;58.375;102128;;;;-70
2023/07/09 21:24:59;;;;;;;;;;;;;;;21.62;58.67773;102149.5;;;;-69
2023/07/09 21:29:55;;;;;;;;;;;;;;;21.6;58.57227;102123.8;;;;-70
2023/07/09 21:34:55;;;;;;;;;;;;;;;21.57;58.96777;102093.5;;;;-69
2023/07/09 21:35:38;;;;;;;0.2;0;;;;;;;;;;;;;-67
2023/07/09 21:39:54;;;;;;;;;;;;;;;21.46;58.43945;102122.4;;;;-68
2023/07/09 21:44:54;;;;;;;;;;;;;;;21.41;58.80957;102119.7;;;;-69
2023/07/09 21:49:54;;;;;;;;;;;;;;;21.3;58.74902;102115.7;;;;-67
2023/07/09 21:54:55;;;;;;;;;;;;;;;21.21;58.84082;102115.3;;;;-70
2023/07/09 21:59:54;;;;;;;;;;;;;;;21.11;58.82715;102126.5;;;;-68
2023/07/09 22:04:54;;;;;;;;;;;;;;;21.02;58.91797;102137.1;;;;-69
2023/07/09 22:05:42;;;;;;;0.3;0.1;;;;;;;;;;;;;-68
2023/07/09 22:09:55;;;;;;;;;;;;;;;20.96;59.06934;102153;;;;-71
2023/07/09 22:14:56;;;;;;;;;;;;;;;20.88;59.10547;102157.7;;;;-70
2023/07/09 22:19:54;;;;;;;;;;;;;;;20.83;58.97266;102156.9;;;;-70
2023/07/09 22:24:54;;;;;;;;;;;;;;;20.79;59.18457;102163.1;;;;-70
2023/07/09 22:29:54;;;;;;;;;;;;;;;20.73;58.94824;102161.8;;;;-69
2023/07/09 22:34:54;;;;;;;;;;;;;;;20.67;59.1123;102163.1;;;;-68
2023/07/09 22:35:45;;;;;;;0.2;0;;;;;;;;;;;;;-68
2023/07/09 22:39:55;;;;;;;;;;;;;;;20.64;59.10742;102161.6;;;;-69
2023/07/09 22:44:54;;;;;;;;;;;;;;;20.63;58.84375;102151.7;;;;-69
2023/07/09 22:49:55;;;;;;;;;;;;;;;20.58;58.97363;102144.7;;;;-69
2023/07/09 22:54:57;;;;;;;;;;;;;;;20.58;59.13281;102147.2;;;;-68
2023/07/09 22:59:54;;;;;;;;;;;;;;;20.55;58.92383;102145.9;;;;-69
2023/07/09 23:04:54;;;;;;;;;;;;;;;20.53;59.11523;102125.7;;;;-68
2023/07/09 23:05:51;;;;;;;0.2;0.1;;;;;;;;;;;;;-69
2023/07/09 23:09:54;;;;;;;;;;;;;;;20.51;59.28418;102124.2;;;;-69
2023/07/09 23:14:54;;;;;;;;;;;;;;;20.53;59.03613;102121.4;;;;-69
2023/07/09 23:19:54;;;;;;;;;;;;;;;20.49;58.97363;102117.5;;;;-69
2023/07/09 23:24:54;;;;;;;;;;;;;;;20.46;59.04883;102101.3;;;;-69
2023/07/09 23:29:54;;;;;;;;;;;;;;;20.47;58.87891;102090.2;;;;-69
2023/07/09 23:34:54;;;;;;;;;;;;;;;20.44;59.10352;102086.5;;;;-69
2023/07/09 23:35:52;;;;;;;0.3;0;;;;;;;;;;;;;-70
2023/07/09 23:39:54;;;;;;;;;;;;;;;20.42;59.10059;102087.5;;;;-68
2023/07/09 23:44:54;;;;;;;;;;;;;;;20.41;59.33887;102094.1;;;;-68
2023/07/09 23:49:54;;;;;;;;;;;;;;;20.37;59.27734;102094.3;;;;-69
2023/07/09 23:54:54;;;;;;;;;;;;;;;20.29;59.44824;102092.6;;;;-70
2023/07/09 23:59:54;;;;;;;;;;;;;;;20.23;60.00879;102085.2;;;;-69
